Time;durP1;ratioP1;P1;durP2;ratioP2;P2;SDS_P1;SDS_P2;PMS_P1;PMS_P2;Temp;Humidity;BMP_temperature;BMP_pressure;BME280_temperature;BME280_humidity;BME280_pressure;Samples;Min_cycle;Max_cycle;Signal;HPM_P1;HPM_P2
2024/01/31 00:00:19;;;;;;;14.98;4.78;;;6.70;99.90;;;;;;5056279;28;20087;-61
2024/01/31 00:02:46;;;;;;;14.50;6.03;;;6.60;99.90;;;;;;5062193;28;20047;-62
2024/01/31 00:05:14;;;;;;;14.63;5.38;;;6.50;99.90;;;;;;5064511;28;20017;-62
2024/01/31 00:07:41;;;;;;;13.27;3.88;;;6.50;99.90;;;;;;5066532;28;20082;-61
2024/01/31 00:10:08;;;;;;;15.05;4.40;;;6.50;99.90;;;;;;5065999;28;20028;-62
2024/01/31 00:12:33;;;;;;;10.90;3.17;;;6.40;99.90;;;;;;5067435;28;20099;-62
2024/01/31 00:14:59;;;;;;;10.82;4.18;;;6.40;99.90;;;;;;5062000;28;20025;-61
2024/01/31 00:17:25;;;;;;;12.52;3.55;;;6.30;99.90;;;;;;5064753;28;20647;-61
2024/01/31 00:19:50;;;;;;;14.63;3.40;;;6.30;99.90;;;;;;5057307;28;20033;-62
2024/01/31 00:22:17;;;;;;;15.15;4.43;;;6.30;99.90;;;;;;5066991;28;20584;-62
2024/01/31 00:24:43;;;;;;;12.43;4.28;;;6.20;99.90;;;;;;5063640;28;20056;-62
2024/01/31 00:27:09;;;;;;;14.88;4.13;;;6.30;99.90;;;;;;5058826;28;20024;-62
2024/01/31 00:29:35;;;;;;;13.55;4.80;;;6.20;99.90;;;;;;5066179;28;20074;-61
2024/01/31 00:32:00;;;;;;;11.52;4.32;;;6.20;99.90;;;;;;5062345;28;20064;-61
2024/01/31 00:34:26;;;;;;;15.70;5.18;;;6.20;99.90;;;;;;5061001;28;20111;-62
2024/01/31 00:36:52;;;;;;;11.82;4.25;;;6.20;99.90;;;;;;5059694;28;20058;-62
2024/01/31 00:39:20;;;;;;;15.82;4.45;;;6.20;99.90;;;;;;5058115;28;20027;-62
2024/01/31 00:41:47;;;;;;;11.88;4.22;;;6.20;99.90;;;;;;5065070;28;20449;-62
2024/01/31 00:44:13;;;;;;;17.75;5.45;;;6.20;99.90;;;;;;5059809;28;20031;-62
2024/01/31 00:46:44;;;;;;;17.08;5.70;;;6.20;99.90;;;;;;5065104;28;20032;-62
2024/01/31 00:49:10;;;;;;;13.05;5.22;;;6.20;99.90;;;;;;5063544;28;20088;-62
2024/01/31 00:51:35;;;;;;;13.38;5.63;;;6.20;99.90;;;;;;5064639;28;20107;-62
2024/01/31 00:54:01;;;;;;;13.50;5.10;;;6.20;99.90;;;;;;5056728;28;20104;-62
2024/01/31 00:56:27;;;;;;;13.82;5.18;;;6.10;99.90;;;;;;5061539;28;20131;-62
2024/01/31 00:58:52;;;;;;;15.02;5.65;;;6.20;99.90;;;;;;5056064;28;20047;-62
2024/01/31 01:01:18;;;;;;;20.08;6.63;;;6.20;99.90;;;;;;5062498;28;20023;-62
2024/01/31 01:03:44;;;;;;;19.73;6.80;;;6.20;99.90;;;;;;5059730;28;20020;-62
2024/01/31 01:06:09;;;;;;;18.88;6.53;;;6.80;99.90;;;;;;5057608;28;20099;-62
2024/01/31 01:08:35;;;;;;;15.57;6.75;;;6.20;99.90;;;;;;5058135;28;20040;-62
2024/01/31 01:11:01;;;;;;;14.63;6.18;;;6.20;99.90;;;;;;5060471;28;20461;-63
2024/01/31 01:13:26;;;;;;;18.40;6.90;;;6.20;99.90;;;;;;5054647;28;20045;-62
2024/01/31 01:15:52;;;;;;;21.08;6.80;;;6.20;99.90;;;;;;5058859;28;20032;-63
2024/01/31 01:18:18;;;;;;;23.52;6.80;;;6.20;99.90;;;;;;5061732;28;20025;-62
2024/01/31 01:20:44;;;;;;;20.50;7.15;;;6.30;99.90;;;;;;5054957;28;20024;-62
2024/01/31 01:23:11;;;;;;;21.40;7.22;;;6.20;99.90;;;;;;5061510;28;20075;-62
2024/01/31 01:25:37;;;;;;;17.80;7.05;;;6.20;99.90;;;;;;5058575;28;20013;-62
2024/01/31 01:28:03;;;;;;;17.75;6.40;;;6.20;99.90;;;;;;5059673;28;20051;-63
2024/01/31 01:30:28;;;;;;;26.38;8.05;;;6.20;99.90;;;;;;5060705;28;20102;-62
2024/01/31 01:32:54;;;;;;;27.55;7.65;;;6.20;99.90;;;;;;5060901;28;20028;-62
2024/01/31 01:35:19;;;;;;;17.90;6.55;;;6.20;99.90;;;;;;5055650;28;20052;-62
2024/01/31 01:37:45;;;;;;;20.08;7.25;;;6.20;99.90;;;;;;5060751;28;20032;-62
2024/01/31 01:40:11;;;;;;;20.35;8.65;;;6.20;99.90;;;;;;5057966;28;20033;-62
2024/01/31 01:42:40;;;;;;;24.20;8.82;;;6.20;99.90;;;;;;5060097;28;20517;-61
2024/01/31 01:45:06;;;;;;;23.70;9.30;;;6.20;99.90;;;;;;5057001;28;20044;-62
2024/01/31 01:47:31;;;;;;;24.10;8.93;;;6.20;99.90;;;;;;5065282;28;20090;-62
2024/01/31 01:49:57;;;;;;;26.23;9.35;;;7.10;99.90;;;;;;5060859;28;20036;-62
2024/01/31 01:52:24;;;;;;;24.50;9.23;;;6.10;99.90;;;;;;5058441;28;20025;-61
2024/01/31 01:54:50;;;;;;;24.75;8.73;;;6.20;99.90;;;;;;5056224;28;20127;-62
2024/01/31 01:57:16;;;;;;;23.23;8.70;;;6.20;99.90;;;;;;5061363;28;20107;-62
2024/01/31 01:59:42;;;;;;;22.85;10.00;;;6.20;99.90;;;;;;5054689;28;20051;-62
2024/01/31 02:02:08;;;;;;;20.75;7.57;;;6.10;99.90;;;;;;5061124;28;20045;-62
2024/01/31 02:04:34;;;;;;;24.67;8.57;;;6.10;99.90;;;;;;5057504;28;20535;-62
2024/01/31 02:07:00;;;;;;;20.15;8.13;;;6.10;99.90;;;;;;5056990;28;20016;-62
2024/01/31 02:09:28;;;;;;;12.40;5.80;;;6.10;99.90;;;;;;5059458;28;20060;-61
2024/01/31 02:11:53;;;;;;;23.42;8.35;;;6.10;99.90;;;;;;5060191;28;20388;-62
2024/01/31 02:14:19;;;;;;;26.83;8.13;;;6.10;99.90;;;;;;5054840;28;20030;-61
2024/01/31 02:16:45;;;;;;;21.48;7.43;;;6.10;99.90;;;;;;5060881;28;20028;-61
2024/01/31 02:19:10;;;;;;;15.27;6.15;;;6.10;99.90;;;;;;5058383;28;20043;-61
2024/01/31 02:21:41;;;;;;;16.95;5.38;;;6.10;99.90;;;;;;5059418;28;20128;-61
2024/01/31 02:24:06;;;;;;;21.60;8.77;;;6.10;99.90;;;;;;5060838;28;20036;-61
2024/01/31 02:26:32;;;;;;;13.50;5.30;;;6.10;99.90;;;;;;5065459;28;20024;-61
2024/01/31 02:28:58;;;;;;;27.80;8.43;;;6.10;99.90;;;;;;5060469;28;20029;-60
2024/01/31 02:31:23;;;;;;;21.08;8.35;;;6.10;99.90;;;;;;5061092;28;20066;-61
2024/01/31 02:33:49;;;;;;;20.83;7.95;;;6.10;99.90;;;;;;5060631;28;20119;-61
2024/01/31 02:36:15;;;;;;;17.50;6.95;;;6.10;99.90;;;;;;5051179;28;20108;-61
2024/01/31 02:38:40;;;;;;;22.85;7.10;;;6.10;99.90;;;;;;5056176;28;20111;-61
2024/01/31 02:41:07;;;;;;;21.50;7.53;;;6.10;99.90;;;;;;5059866;28;20029;-61
2024/01/31 02:43:33;;;;;;;20.42;8.07;;;6.00;99.90;;;;;;5062705;28;20033;-62
2024/01/31 02:45:59;;;;;;;21.70;8.70;;;6.00;99.90;;;;;;5064593;28;20659;-62
2024/01/31 02:48:24;;;;;;;26.98;8.20;;;6.00;99.90;;;;;;5059872;28;20032;-61
2024/01/31 02:50:50;;;;;;;21.88;7.82;;;6.00;99.90;;;;;;5066219;28;20029;-61
2024/01/31 02:53:15;;;;;;;13.25;5.35;;;6.10;99.90;;;;;;5062430;28;20024;-62
2024/01/31 02:55:41;;;;;;;18.42;7.20;;;6.10;99.90;;;;;;5063471;28;20123;-61
2024/01/31 02:58:07;;;;;;;20.65;6.80;;;6.00;99.90;;;;;;5065254;28;20033;-61
2024/01/31 03:00:33;;;;;;;22.13;6.72;;;6.10;99.90;;;;;;5063253;28;20055;-62
2024/01/31 03:02:58;;;;;;;20.77;7.57;;;6.10;99.90;;;;;;5064027;28;20021;-62
2024/01/31 03:05:24;;;;;;;21.20;6.85;;;6.10;99.90;;;;;;5061876;28;20097;-61
2024/01/31 03:07:49;;;;;;;15.95;4.50;;;6.00;99.90;;;;;;5061729;28;20074;-62
2024/01/31 03:10:15;;;;;;;22.05;5.85;;;6.00;99.90;;;;;;5063289;28;20123;-62
2024/01/31 03:12:41;;;;;;;11.82;4.25;;;5.90;99.90;;;;;;5059832;28;20053;-62
2024/01/31 03:15:06;;;;;;;10.63;3.65;;;5.90;99.90;;;;;;5063813;28;20126;-62
2024/01/31 03:17:35;;;;;;;13.80;3.72;;;5.70;99.90;;;;;;5060233;28;20029;-62
2024/01/31 03:20:03;;;;;;;7.53;2.70;;;5.80;99.90;;;;;;5060332;28;20487;-62
2024/01/31 03:22:29;;;;;;;10.20;2.60;;;5.70;99.90;;;;;;5061542;28;20143;-61
2024/01/31 03:24:55;;;;;;;7.78;2.33;;;5.70;99.90;;;;;;5059783;28;20115;-61
2024/01/31 03:27:21;;;;;;;8.77;2.58;;;5.70;99.90;;;;;;5061586;28;20096;-62
2024/01/31 03:29:46;;;;;;;6.75;2.42;;;5.60;99.90;;;;;;5061265;28;20029;-62
2024/01/31 03:32:12;;;;;;;7.05;2.17;;;5.60;99.90;;;;;;5060669;28;20036;-62
2024/01/31 03:34:37;;;;;;;8.50;2.72;;;5.60;99.90;;;;;;5059173;28;20037;-61
2024/01/31 03:37:05;;;;;;;6.28;2.17;;;5.60;99.90;;;;;;5055481;28;20032;-62
2024/01/31 03:39:33;;;;;;;7.95;2.45;;;5.50;99.90;;;;;;5062110;28;20100;-62
2024/01/31 03:41:59;;;;;;;8.10;2.45;;;5.60;99.90;;;;;;5065384;28;20515;-62
2024/01/31 03:44:25;;;;;;;10.52;2.38;;;5.60;99.90;;;;;;5058567;28;20124;-62
2024/01/31 03:46:50;;;;;;;11.85;2.33;;;5.50;99.90;;;;;;5067513;28;20032;-62
2024/01/31 03:49:16;;;;;;;7.88;1.90;;;5.50;99.90;;;;;;5059509;28;20401;-62
2024/01/31 03:51:42;;;;;;;9.85;2.55;;;5.50;99.90;;;;;;5064550;28;20536;-63
2024/01/31 03:54:07;;;;;;;10.73;2.70;;;5.50;99.90;;;;;;5061252;28;20033;-62
2024/01/31 03:56:33;;;;;;;7.90;2.67;;;5.50;99.90;;;;;;5063082;28;20101;-62
2024/01/31 03:58:58;;;;;;;10.77;3.83;;;5.50;99.90;;;;;;5059638;28;20029;-62
2024/01/31 04:01:24;;;;;;;8.52;2.25;;;5.50;99.90;;;;;;5061802;28;20029;-62
2024/01/31 04:03:50;;;;;;;11.90;2.90;;;5.40;99.90;;;;;;5062768;28;20032;-62
2024/01/31 04:06:17;;;;;;;8.23;2.47;;;5.40;99.90;;;;;;5061477;28;20024;-62
2024/01/31 04:08:42;;;;;;;7.97;2.55;;;5.50;99.90;;;;;;5061264;28;20067;-62
2024/01/31 04:11:08;;;;;;;10.35;2.60;;;5.40;99.90;;;;;;5059224;28;20481;-62
2024/01/31 04:13:33;;;;;;;8.40;2.63;;;5.40;99.90;;;;;;5060994;28;20385;-62
2024/01/31 04:15:59;;;;;;;10.05;2.40;;;5.40;99.90;;;;;;5058690;28;20036;-62
2024/01/31 04:18:25;;;;;;;8.63;2.33;;;5.50;99.90;;;;;;5062969;28;20064;-62
2024/01/31 04:20:50;;;;;;;9.25;2.03;;;5.50;99.90;;;;;;5059838;28;20429;-62
2024/01/31 04:23:16;;;;;;;11.18;2.63;;;5.50;99.90;;;;;;5058989;28;20116;-62
2024/01/31 04:25:42;;;;;;;13.30;2.78;;;5.50;99.90;;;;;;5059413;28;20020;-62
2024/01/31 04:28:08;;;;;;;9.63;2.60;;;5.50;99.90;;;;;;5058950;28;20026;-61
2024/01/31 04:30:33;;;;;;;8.73;2.50;;;5.40;99.90;;;;;;5062844;28;20064;-61
2024/01/31 04:33:02;;;;;;;7.68;2.40;;;5.40;99.90;;;;;;5061172;28;20027;-61
2024/01/31 04:35:28;;;;;;;6.80;1.90;;;5.40;99.90;;;;;;5057911;28;20104;-61
2024/01/31 04:37:54;;;;;;;7.70;2.50;;;5.40;99.90;;;;;;5062015;28;20116;-61
2024/01/31 04:40:20;;;;;;;9.20;2.65;;;5.50;99.90;;;;;;5057324;28;20029;-61
2024/01/31 04:42:47;;;;;;;8.82;2.88;;;5.40;99.90;;;;;;5058586;28;20036;-61
2024/01/31 04:45:13;;;;;;;7.80;2.55;;;5.40;99.90;;;;;;5058747;28;20032;-61
2024/01/31 04:47:41;;;;;;;7.57;2.35;;;5.30;99.90;;;;;;5060636;28;20457;-61
2024/01/31 04:50:07;;;;;;;12.02;2.65;;;5.30;99.90;;;;;;5059964;28;20095;-61
2024/01/31 04:52:33;;;;;;;10.32;2.63;;;5.30;99.90;;;;;;5058296;28;20092;-61
2024/01/31 04:54:58;;;;;;;10.27;2.65;;;5.40;99.90;;;;;;5060601;28;20115;-62
2024/01/31 04:57:24;;;;;;;10.02;2.83;;;5.40;99.90;;;;;;5060105;28;20487;-62
2024/01/31 04:59:50;;;;;;;10.38;2.85;;;5.40;99.90;;;;;;5059440;28;20035;-62
2024/01/31 05:02:15;;;;;;;10.45;3.05;;;5.40;99.90;;;;;;5059061;28;20040;-63
2024/01/31 05:04:41;;;;;;;10.38;2.80;;;5.30;99.90;;;;;;5061357;28;20027;-62
2024/01/31 05:07:07;;;;;;;9.02;2.78;;;5.20;99.90;;;;;;5058065;28;20029;-63
2024/01/31 05:09:32;;;;;;;9.63;2.95;;;5.30;99.90;;;;;;5058037;28;20127;-63
2024/01/31 05:11:58;;;;;;;10.25;3.10;;;5.30;99.90;;;;;;5060612;28;20419;-62
2024/01/31 05:14:24;;;;;;;11.07;3.30;;;5.30;99.90;;;;;;5056564;28;20071;-62
2024/01/31 05:16:50;;;;;;;10.18;3.20;;;5.30;99.90;;;;;;5059539;28;20067;-62
2024/01/31 05:19:16;;;;;;;10.20;3.22;;;5.20;99.90;;;;;;5057712;28;20029;-62
2024/01/31 05:21:45;;;;;;;13.88;3.30;;;5.10;99.90;;;;;;5059404;28;20024;-63
2024/01/31 05:24:11;;;;;;;14.35;4.20;;;5.10;99.90;;;;;;5058327;28;20106;-63
2024/01/31 05:26:37;;;;;;;12.98;3.28;;;5.10;99.90;;;;;;5058930;28;20025;-62
2024/01/31 05:29:03;;;;;;;11.93;4.60;;;5.10;99.90;;;;;;5061323;28;20413;-63
2024/01/31 05:31:28;;;;;;;14.00;3.70;;;5.10;99.90;;;;;;5060090;28;20025;-63
2024/01/31 05:33:54;;;;;;;11.27;3.97;;;5.10;99.90;;;;;;5061457;28;20033;-62
2024/01/31 05:36:19;;;;;;;13.13;4.18;;;5.10;99.90;;;;;;5060406;28;20047;-63
2024/01/31 05:38:45;;;;;;;16.42;3.65;;;5.10;99.90;;;;;;5060847;28;20522;-63
2024/01/31 05:41:12;;;;;;;17.02;4.35;;;5.20;99.90;;;;;;5058186;28;20107;-63
2024/01/31 05:43:38;;;;;;;11.57;3.35;;;5.20;99.90;;;;;;5061011;28;20426;-62
2024/01/31 05:46:03;;;;;;;10.88;3.60;;;5.10;99.90;;;;;;5057240;28;20029;-62
2024/01/31 05:48:29;;;;;;;10.85;2.97;;;5.30;99.90;;;;;;5056744;28;20017;-63
2024/01/31 05:50:54;;;;;;;8.95;3.35;;;5.20;99.90;;;;;;5058491;28;20024;-63
2024/01/31 05:53:20;;;;;;;8.57;2.67;;;5.20;99.90;;;;;;5061411;28;20036;-63
2024/01/31 05:55:46;;;;;;;10.88;3.25;;;5.20;99.90;;;;;;5060857;28;20111;-63
2024/01/31 05:58:11;;;;;;;8.45;2.70;;;5.20;99.90;;;;;;5058489;28;20039;-63
2024/01/31 06:00:37;;;;;;;8.35;2.67;;;5.20;99.90;;;;;;5058602;28;20017;-62
2024/01/31 06:03:03;;;;;;;9.10;2.63;;;5.20;99.90;;;;;;5060814;28;20036;-62
2024/01/31 06:05:29;;;;;;;8.02;2.50;;;5.30;99.90;;;;;;5056850;28;20021;-62
2024/01/31 06:07:55;;;;;;;11.38;2.45;;;5.30;99.90;;;;;;5059645;28;20047;-62
2024/01/31 06:10:21;;;;;;;7.85;2.42;;;5.30;99.90;;;;;;5059344;28;20346;-62
2024/01/31 06:12:46;;;;;;;6.95;2.47;;;5.30;99.90;;;;;;5056931;28;20485;-62
2024/01/31 06:15:12;;;;;;;8.48;2.60;;;5.20;99.90;;;;;;5059706;28;20056;-62
2024/01/31 06:17:38;;;;;;;7.47;2.30;;;5.30;99.90;;;;;;5058017;28;20043;-63
2024/01/31 06:20:04;;;;;;;10.07;2.00;;;5.30;99.90;;;;;;5062400;28;20031;-62
2024/01/31 06:22:30;;;;;;;8.48;2.30;;;5.30;99.90;;;;;;5060670;28;20028;-62
2024/01/31 06:24:56;;;;;;;10.80;2.95;;;5.30;99.90;;;;;;5062720;28;20028;-62
2024/01/31 06:27:21;;;;;;;8.90;2.40;;;5.30;99.90;;;;;;5057649;28;20493;-63
2024/01/31 06:29:47;;;;;;;9.73;2.38;;;5.30;99.90;;;;;;5060081;28;20040;-62
2024/01/31 06:32:20;;;;;;;5.93;2.30;;;5.30;99.90;;;;;;5062008;28;20063;-62
2024/01/31 06:34:46;;;;;;;8.55;2.78;;;5.30;99.90;;;;;;5063894;28;20112;-63
2024/01/31 06:37:12;;;;;;;7.07;2.22;;;5.30;99.90;;;;;;5060415;28;20540;-62
2024/01/31 06:39:38;;;;;;;9.45;2.42;;;5.30;99.90;;;;;;5061451;28;20435;-62
2024/01/31 06:42:03;;;;;;;7.63;2.70;;;5.20;99.90;;;;;;5062576;28;20033;-62
2024/01/31 06:44:29;;;;;;;8.77;2.70;;;5.20;99.90;;;;;;5058790;28;20017;-62
2024/01/31 06:46:55;;;;;;;9.57;2.53;;;5.20;99.90;;;;;;5059407;28;20097;-63
2024/01/31 06:49:20;;;;;;;9.00;2.88;;;5.10;99.90;;;;;;5064744;28;20063;-62
2024/01/31 06:51:46;;;;;;;10.35;2.53;;;5.00;99.90;;;;;;5061399;28;20027;-62
2024/01/31 06:54:12;;;;;;;8.60;2.78;;;5.10;99.90;;;;;;5065830;28;20037;-63
2024/01/31 06:56:37;;;;;;;12.88;3.38;;;5.10;99.90;;;;;;5063833;28;20033;-62
2024/01/31 06:59:03;;;;;;;7.18;2.35;;;5.20;99.90;;;;;;5063827;28;20060;-62
2024/01/31 07:01:29;;;;;;;11.02;2.63;;;5.20;99.90;;;;;;5061276;28;20056;-63
2024/01/31 07:03:54;;;;;;;8.88;3.05;;;5.30;99.90;;;;;;5060160;28;20020;-63
2024/01/31 07:06:20;;;;;;;7.50;2.25;;;5.20;99.90;;;;;;5066520;28;20067;-63
2024/01/31 07:08:45;;;;;;;10.18;2.42;;;5.10;99.90;;;;;;5062732;28;20028;-63
2024/01/31 07:11:12;;;;;;;8.82;2.45;;;5.10;99.90;;;;;;5062558;28;20080;-63
2024/01/31 07:13:40;;;;;;;9.48;2.20;;;5.10;99.90;;;;;;5058436;28;20036;-63
2024/01/31 07:16:09;;;;;;;9.35;2.50;;;5.00;99.90;;;;;;5062698;28;20029;-62
2024/01/31 07:18:41;;;;;;;8.02;2.30;;;5.00;99.90;;;;;;5067526;28;20614;-63
2024/01/31 07:21:10;;;;;;;7.97;2.65;;;5.00;99.90;;;;;;5062321;28;20100;-63
2024/01/31 07:23:36;;;;;;;6.93;2.28;;;5.00;99.90;;;;;;5059168;28;20166;-63
2024/01/31 07:26:02;;;;;;;8.05;2.47;;;5.00;99.90;;;;;;5060913;28;20442;-63
2024/01/31 07:28:31;;;;;;;11.45;3.13;;;5.00;99.90;;;;;;5064092;28;20554;-62
2024/01/31 07:30:57;;;;;;;10.45;3.10;;;5.10;99.90;;;;;;5058395;28;20020;-63
2024/01/31 07:33:23;;;;;;;10.00;3.33;;;5.90;99.90;;;;;;5054694;28;20562;-62
2024/01/31 07:35:48;;;;;;;12.93;3.50;;;5.10;99.90;;;;;;5066263;28;20044;-63
2024/01/31 07:38:14;;;;;;;9.68;3.72;;;5.20;99.90;;;;;;5062221;28;20025;-63
2024/01/31 07:40:39;;;;;;;10.32;3.78;;;5.20;99.90;;;;;;5062404;28;20036;-63
2024/01/31 07:43:05;;;;;;;13.52;4.25;;;5.10;99.90;;;;;;5065623;28;20092;-63
2024/01/31 07:45:31;;;;;;;13.50;4.10;;;5.10;99.90;;;;;;5062599;28;20444;-63
2024/01/31 07:47:57;;;;;;;14.73;5.18;;;5.20;99.90;;;;;;5067126;28;20028;-63
2024/01/31 07:50:23;;;;;;;11.55;4.85;;;5.30;99.90;;;;;;5053495;28;20388;-63
2024/01/31 07:52:49;;;;;;;13.70;4.90;;;5.30;99.90;;;;;;5067437;28;20038;-63
2024/01/31 07:55:14;;;;;;;13.07;4.82;;;5.30;99.90;;;;;;5064102;28;20567;-62
2024/01/31 07:57:40;;;;;;;10.73;4.38;;;5.20;99.90;;;;;;5062411;28;20047;-63
2024/01/31 08:00:07;;;;;;;12.85;4.85;;;5.20;99.90;;;;;;5065949;28;20024;-63
2024/01/31 08:02:33;;;;;;;13.55;5.35;;;5.30;99.90;;;;;;5062273;28;20029;-62
2024/01/31 08:04:59;;;;;;;12.45;5.03;;;5.40;99.90;;;;;;5054424;28;20025;-62
2024/01/31 08:07:25;;;;;;;14.88;5.38;;;5.40;99.90;;;;;;5062046;28;20119;-62
2024/01/31 08:09:50;;;;;;;13.90;5.25;;;5.50;99.90;;;;;;5062309;28;20062;-62
2024/01/31 08:12:17;;;;;;;12.77;5.00;;;5.60;99.90;;;;;;5062890;28;20037;-63
2024/01/31 08:14:42;;;;;;;15.32;5.50;;;5.60;99.90;;;;;;5060607;28;20032;-63
2024/01/31 08:17:08;;;;;;;15.00;5.70;;;5.70;99.90;;;;;;5063964;28;20101;-63
2024/01/31 08:19:34;;;;;;;13.80;5.60;;;5.60;99.90;;;;;;5060197;28;20079;-62
2024/01/31 08:22:00;;;;;;;14.52;5.95;;;5.70;99.90;;;;;;5065695;28;20384;-62
2024/01/31 08:24:26;;;;;;;12.57;5.38;;;5.70;99.90;;;;;;5064420;28;20033;-62
2024/01/31 08:26:51;;;;;;;15.75;5.90;;;5.80;99.90;;;;;;5065614;28;20028;-63
2024/01/31 08:29:17;;;;;;;12.35;5.32;;;5.80;99.90;;;;;;5061503;28;20052;-63
2024/01/31 08:31:43;;;;;;;13.70;5.68;;;5.80;99.90;;;;;;5061540;28;20029;-63
2024/01/31 08:34:12;;;;;;;15.05;6.18;;;5.80;99.90;;;;;;5067996;28;20048;-62
2024/01/31 08:36:38;;;;;;;13.80;5.93;;;5.80;99.90;;;;;;5060830;28;20029;-62
2024/01/31 08:39:04;;;;;;;12.82;5.50;;;5.80;99.90;;;;;;5067224;28;20032;-62
2024/01/31 08:41:31;;;;;;;15.52;5.53;;;5.70;99.90;;;;;;5066249;28;20038;-62
2024/01/31 08:43:57;;;;;;;16.45;5.90;;;5.90;99.90;;;;;;5066700;28;20033;-62
2024/01/31 08:46:26;;;;;;;13.45;5.78;;;5.90;99.90;;;;;;5060149;28;20036;-62
2024/01/31 08:48:51;;;;;;;16.90;6.30;;;5.90;99.90;;;;;;5064357;28;20020;-62
2024/01/31 08:51:18;;;;;;;17.63;6.53;;;5.90;99.90;;;;;;5060279;28;20070;-63
2024/01/31 08:53:44;;;;;;;13.63;6.50;;;5.90;99.90;;;;;;5066660;28;20066;-62
2024/01/31 08:56:10;;;;;;;15.10;6.22;;;5.90;99.90;;;;;;5063625;28;20494;-62
2024/01/31 08:58:35;;;;;;;20.85;6.60;;;6.00;99.90;;;;;;5058622;28;20029;-62
2024/01/31 09:01:01;;;;;;;19.42;7.00;;;6.00;99.90;;;;;;5057326;28;20068;-63
2024/01/31 09:03:26;;;;;;;17.27;6.35;;;6.00;99.90;;;;;;5059144;28;20416;-62
2024/01/31 09:05:53;;;;;;;16.80;7.38;;;6.00;99.90;;;;;;5055317;28;20032;-62
2024/01/31 09:08:20;;;;;;;16.60;6.72;;;6.00;99.90;;;;;;5060236;28;20021;-63
2024/01/31 09:10:45;;;;;;;17.27;6.88;;;6.00;99.90;;;;;;5056558;28;20074;-62
2024/01/31 09:13:11;;;;;;;19.88;7.40;;;6.00;99.90;;;;;;5060254;28;20048;-62
2024/01/31 09:15:37;;;;;;;17.20;7.25;;;6.00;99.90;;;;;;5059547;28;20033;-62
2024/01/31 09:18:03;;;;;;;20.10;7.25;;;6.00;99.90;;;;;;5059421;28;20141;-62
2024/01/31 09:20:30;;;;;;;18.13;6.82;;;6.10;99.90;;;;;;5060613;28;20025;-62
2024/01/31 09:22:56;;;;;;;19.35;7.65;;;6.10;99.90;;;;;;5062719;28;20029;-62
2024/01/31 09:25:21;;;;;;;16.20;5.40;;;6.10;99.90;;;;;;5059016;28;20412;-62
2024/01/31 09:27:47;;;;;;;15.70;7.63;;;6.10;99.90;;;;;;5058128;28;20032;-62
2024/01/31 09:30:13;;;;;;;18.10;7.95;;;6.10;99.90;;;;;;5058192;28;20062;-62
2024/01/31 09:32:39;;;;;;;17.95;7.95;;;6.00;99.90;;;;;;5053837;28;20387;-62
2024/01/31 09:35:05;;;;;;;19.45;7.57;;;6.10;99.90;;;;;;5061623;28;20036;-63
2024/01/31 09:37:32;;;;;;;19.80;7.57;;;6.00;99.90;;;;;;5063114;28;20058;-62
2024/01/31 09:40:01;;;;;;;19.05;7.82;;;6.00;99.90;;;;;;5060835;28;20103;-62
2024/01/31 09:42:27;;;;;;;19.42;7.40;;;6.00;99.90;;;;;;5062266;28;20025;-63
2024/01/31 09:44:58;;;;;;;18.73;7.93;;;6.00;99.90;;;;;;5061295;28;20043;-62
2024/01/31 09:47:27;;;;;;;18.27;7.05;;;6.10;99.90;;;;;;5055121;28;20473;-62
2024/01/31 09:49:55;;;;;;;17.77;6.97;;;6.10;99.90;;;;;;5060122;28;20456;-63
2024/01/31 09:52:27;;;;;;;19.02;7.22;;;6.20;99.90;;;;;;5067471;28;20130;-63
2024/01/31 09:54:57;;;;;;;16.80;6.63;;;6.30;99.90;;;;;;5063218;28;20039;-62
2024/01/31 09:57:24;;;;;;;16.98;7.88;;;6.30;99.90;;;;;;5061120;28;20110;-62
2024/01/31 09:59:51;;;;;;;17.48;7.03;;;6.30;99.90;;;;;;5068864;28;20051;-62
2024/01/31 10:02:17;;;;;;;16.80;6.82;;;6.40;99.90;;;;;;5063482;28;20021;-62
2024/01/31 10:04:47;;;;;;;16.80;6.97;;;6.40;99.90;;;;;;5059238;28;20096;-62
2024/01/31 10:07:21;;;;;;;17.98;7.78;;;6.40;99.90;;;;;;5060670;28;20174;-63
2024/01/31 10:09:47;;;;;;;15.82;6.90;;;6.40;99.90;;;;;;5064815;28;20039;-62
2024/01/31 10:12:12;;;;;;;17.92;6.40;;;6.40;99.90;;;;;;5065622;28;20411;-63
2024/01/31 10:14:38;;;;;;;17.73;6.80;;;6.50;99.90;;;;;;5063942;28;20095;-62
2024/01/31 10:17:04;;;;;;;14.63;6.60;;;6.50;99.90;;;;;;5064904;28;20127;-62
2024/01/31 10:19:29;;;;;;;19.15;6.40;;;6.60;99.90;;;;;;5063734;28;20041;-62
2024/01/31 10:21:57;;;;;;;14.77;6.55;;;6.60;99.90;;;;;;5063301;28;20020;-62
2024/01/31 10:24:23;;;;;;;14.63;6.10;;;6.60;99.90;;;;;;5065559;28;20021;-62
2024/01/31 10:26:48;;;;;;;15.60;5.93;;;6.70;99.90;;;;;;5059217;28;20044;-63
2024/01/31 10:29:14;;;;;;;13.30;5.35;;;6.80;99.90;;;;;;5058763;28;20033;-62
2024/01/31 10:31:42;;;;;;;13.15;5.80;;;6.90;99.90;;;;;;5064189;28;20024;-62
2024/01/31 10:34:08;;;;;;;13.93;5.13;;;6.90;99.90;;;;;;5065872;28;20058;-62
2024/01/31 10:36:35;;;;;;;13.85;5.10;;;6.90;99.90;;;;;;5060453;28;20029;-62
2024/01/31 10:39:02;;;;;;;14.13;5.72;;;6.90;99.90;;;;;;5064007;28;20485;-62
2024/01/31 10:41:29;;;;;;;13.65;5.20;;;7.10;99.90;;;;;;5067688;28;20029;-62
2024/01/31 10:43:58;;;;;;;12.30;5.07;;;7.10;99.90;;;;;;5065600;28;20024;-63
2024/01/31 10:46:23;;;;;;;15.10;5.40;;;7.10;99.90;;;;;;5062521;28;20029;-62
2024/01/31 10:48:49;;;;;;;15.48;5.00;;;7.20;99.90;;;;;;5068041;28;20040;-62
2024/01/31 10:51:16;;;;;;;12.30;4.85;;;7.20;99.90;;;;;;5057606;28;20624;-63
2024/01/31 10:53:43;;;;;;;11.88;4.30;;;7.30;99.90;;;;;;5066845;28;20063;-62
2024/01/31 10:56:11;;;;;;;11.95;4.97;;;7.30;99.90;;;;;;5057231;28;20059;-62
2024/01/31 10:58:36;;;;;;;11.70;4.18;;;7.30;99.90;;;;;;5065496;28;20116;-62
2024/01/31 11:01:04;;;;;;;11.55;4.63;;;7.30;99.90;;;;;;5060318;28;20025;-63
2024/01/31 11:03:30;;;;;;;11.25;4.70;;;7.30;99.90;;;;;;5066322;28;20116;-62
2024/01/31 11:05:56;;;;;;;12.88;4.47;;;7.30;99.90;;;;;;5061466;28;20028;-62
2024/01/31 11:08:24;;;;;;;11.25;3.95;;;7.30;99.90;;;;;;5060873;28;20395;-63
2024/01/31 11:10:50;;;;;;;16.23;4.10;;;7.40;99.90;;;;;;5055209;28;20032;-62
2024/01/31 11:13:16;;;;;;;11.60;3.83;;;7.30;99.90;;;;;;5059326;28;20118;-62
2024/01/31 11:15:43;;;;;;;10.85;3.90;;;7.40;99.90;;;;;;5058970;28;20075;-63
2024/01/31 11:18:10;;;;;;;9.25;3.58;;;7.50;99.90;;;;;;5061109;28;20571;-62
2024/01/31 11:20:38;;;;;;;10.95;4.43;;;7.50;99.90;;;;;;5060725;28;20429;-62
2024/01/31 11:23:05;;;;;;;10.68;3.90;;;7.60;99.90;;;;;;5058611;28;20035;-62
2024/01/31 11:25:35;;;;;;;13.18;4.05;;;7.60;99.90;;;;;;5056887;28;20028;-62
2024/01/31 11:28:06;;;;;;;10.00;3.85;;;7.60;99.90;;;;;;5071663;28;20450;-62
2024/01/31 11:30:32;;;;;;;;;;;7.70;99.90;;;;;;5061015;28;20464;-62
2024/01/31 11:33:01;;;;;;;10.73;4.10;;;7.70;99.90;;;;;;5062658;28;19912;-62
2024/01/31 11:35:28;;;;;;;11.13;4.10;;;7.80;99.90;;;;;;5060560;28;20033;-62
2024/01/31 11:37:56;;;;;;;12.00;3.95;;;7.70;99.90;;;;;;5058856;28;20083;-62
2024/01/31 11:40:22;;;;;;;12.30;4.20;;;7.90;99.90;;;;;;5064787;28;20047;-62
2024/01/31 11:42:48;;;;;;;14.68;4.07;;;7.80;99.90;;;;;;5061897;28;20029;-62
2024/01/31 11:45:15;;;;;;;12.77;4.63;;;7.80;99.90;;;;;;5058119;28;20423;-61
2024/01/31 11:47:41;;;;;;;13.13;4.93;;;7.80;99.90;;;;;;5063004;28;20076;-62
2024/01/31 11:50:08;;;;;;;15.07;4.93;;;7.70;99.90;;;;;;5058640;28;20063;-62
2024/01/31 11:52:33;;;;;;;12.77;4.95;;;7.70;99.90;;;;;;5062190;28;20556;-62
2024/01/31 11:54:59;;;;;;;10.30;4.43;;;7.60;99.90;;;;;;5060690;28;20025;-62
2024/01/31 11:57:26;;;;;;;13.27;4.57;;;7.60;99.90;;;;;;5062479;28;20380;-62
2024/01/31 11:59:53;;;;;;;14.38;5.95;;;7.70;99.90;;;;;;5063459;28;20046;-62
2024/01/31 12:02:19;;;;;;;17.13;6.20;;;7.70;99.90;;;;;;5063503;28;20020;-62
2024/01/31 12:04:54;;;;;;;14.43;5.63;;;7.70;99.90;;;;;;5064111;28;20415;-62
2024/01/31 12:07:20;;;;;;;13.98;5.80;;;7.70;99.90;;;;;;5062298;28;20422;-62
2024/01/31 12:09:46;;;;;;;18.40;6.32;;;7.70;99.90;;;;;;5061219;28;20020;-62
2024/01/31 12:12:13;;;;;;;15.55;5.82;;;7.70;99.90;;;;;;5058931;28;20083;-62
2024/01/31 12:14:39;;;;;;;19.20;6.53;;;7.70;99.90;;;;;;5065599;28;20037;-62
2024/01/31 12:17:18;;;;;;;17.30;6.50;;;7.70;99.90;;;;;;5068243;28;20032;-62
2024/01/31 12:19:44;;;;;;;20.05;7.50;;;7.70;99.90;;;;;;5061402;28;20049;-63
2024/01/31 12:22:11;;;;;;;19.60;7.75;;;7.70;99.90;;;;;;5054834;28;20448;-62
2024/01/31 12:24:37;;;;;;;23.98;6.82;;;7.70;99.90;;;;;;5065470;28;20032;-62
2024/01/31 12:27:03;;;;;;;19.23;7.53;;;7.30;99.90;;;;;;5058695;28;20417;-62
2024/01/31 12:29:29;;;;;;;19.90;8.55;;;7.70;99.90;;;;;;5061757;28;20131;-62
2024/01/31 12:31:55;;;;;;;21.77;7.53;;;7.60;99.90;;;;;;5058108;28;20070;-62
2024/01/31 12:34:20;;;;;;;21.45;7.53;;;7.50;99.90;;;;;;5059113;28;20124;-62
2024/01/31 12:36:46;;;;;;;17.67;6.97;;;7.60;99.90;;;;;;5062185;28;20029;-62
2024/01/31 12:39:17;;;;;;;19.02;7.60;;;7.60;99.90;;;;;;5059295;28;20598;-63
2024/01/31 12:41:42;;;;;;;18.48;7.32;;;7.70;99.90;;;;;;5056107;28;20029;-63